sensor_id;sensor_type;location;lat;lon;timestamp;P1;durP1;ratioP1;P2;durP2;ratioP2
51664;SDS011;37751;52.408;12.536;2024-03-08T00:00:59;39.40;;;20.30;;
51664;SDS011;37751;52.408;12.536;2024-03-08T00:03:33;33.87;;;19.20;;
51664;SDS011;37751;52.408;12.536;2024-03-08T00:06:11;37.17;;;20.00;;
51664;SDS011;37751;52.408;12.536;2024-03-08T00:08:42;36.50;;;19.87;;
51664;SDS011;37751;52.408;12.536;2024-03-08T00:11:14;43.80;;;20.73;;
51664;SDS011;37751;52.408;12.536;2024-03-08T00:13:45;34.77;;;18.60;;
51664;SDS011;37751;52.408;12.536;2024-03-08T00:16:16;37.53;;;19.20;;
51664;SDS011;37751;52.408;12.536;2024-03-08T00:18:55;37.13;;;20.03;;
51664;SDS011;37751;52.408;12.536;2024-03-08T00:21:26;35.63;;;17.97;;
51664;SDS011;37751;52.408;12.536;2024-03-08T00:23:59;39.73;;;20.40;;
51664;SDS011;37751;52.408;12.536;2024-03-08T00:26:33;37.03;;;19.87;;
51664;SDS011;37751;52.408;12.536;2024-03-08T00:29:04;31.47;;;18.40;;
51664;SDS011;37751;52.408;12.536;2024-03-08T00:31:35;35.70;;;19.57;;
51664;SDS011;37751;52.408;12.536;2024-03-08T00:34:09;40.37;;;20.90;;
51664;SDS011;37751;52.408;12.536;2024-03-08T00:36:40;35.53;;;19.10;;
51664;SDS011;37751;52.408;12.536;2024-03-08T00:39:11;35.57;;;18.40;;
51664;SDS011;37751;52.408;12.536;2024-03-08T00:41:42;43.77;;;21.10;;
51664;SDS011;37751;52.408;12.536;2024-03-08T00:44:24;37.33;;;20.23;;
51664;SDS011;37751;52.408;12.536;2024-03-08T00:46:55;42.63;;;21.37;;
51664;SDS011;37751;52.408;12.536;2024-03-08T00:49:29;41.40;;;21.70;;
51664;SDS011;37751;52.408;12.536;2024-03-08T00:52:09;36.60;;;19.23;;
51664;SDS011;37751;52.408;12.536;2024-03-08T00:54:43;35.20;;;20.10;;
51664;SDS011;37751;52.408;12.536;2024-03-08T00:57:16;39.60;;;20.97;;
51664;SDS011;37751;52.408;12.536;2024-03-08T00:59:48;39.63;;;21.23;;
51664;SDS011;37751;52.408;12.536;2024-03-08T01:02:22;47.53;;;20.83;;
51664;SDS011;37751;52.408;12.536;2024-03-08T01:04:56;36.83;;;19.90;;
51664;SDS011;37751;52.408;12.536;2024-03-08T01:07:41;40.77;;;19.87;;
51664;SDS011;37751;52.408;12.536;2024-03-08T01:10:16;35.83;;;18.80;;
51664;SDS011;37751;52.408;12.536;2024-03-08T01:12:47;36.13;;;18.87;;
51664;SDS011;37751;52.408;12.536;2024-03-08T01:15:28;37.33;;;20.90;;
51664;SDS011;37751;52.408;12.536;2024-03-08T01:17:59;40.13;;;20.07;;
51664;SDS011;37751;52.408;12.536;2024-03-08T01:20:36;43.07;;;20.87;;
51664;SDS011;37751;52.408;12.536;2024-03-08T01:23:19;39.20;;;19.53;;
51664;SDS011;37751;52.408;12.536;2024-03-08T01:25:53;42.70;;;20.00;;
51664;SDS011;37751;52.408;12.536;2024-03-08T01:28:26;38.63;;;20.27;;
51664;SDS011;37751;52.408;12.536;2024-03-08T01:30:58;37.73;;;20.83;;
51664;SDS011;37751;52.408;12.536;2024-03-08T01:33:34;37.03;;;20.23;;
51664;SDS011;37751;52.408;12.536;2024-03-08T01:36:11;40.50;;;21.50;;
51664;SDS011;37751;52.408;12.536;2024-03-08T01:38:43;41.77;;;21.13;;
51664;SDS011;37751;52.408;12.536;2024-03-08T01:41:26;40.07;;;21.03;;
51664;SDS011;37751;52.408;12.536;2024-03-08T01:43:57;42.93;;;20.80;;
51664;SDS011;37751;52.408;12.536;2024-03-08T01:46:27;43.27;;;19.77;;
51664;SDS011;37751;52.408;12.536;2024-03-08T01:49:07;50.57;;;22.27;;
51664;SDS011;37751;52.408;12.536;2024-03-08T01:51:44;44.77;;;22.33;;
51664;SDS011;37751;52.408;12.536;2024-03-08T01:54:18;44.03;;;22.03;;
51664;SDS011;37751;52.408;12.536;2024-03-08T01:56:59;39.53;;;21.60;;
51664;SDS011;37751;52.408;12.536;2024-03-08T02:00:11;40.57;;;20.87;;
51664;SDS011;37751;52.408;12.536;2024-03-08T02:02:43;41.30;;;21.73;;
51664;SDS011;37751;52.408;12.536;2024-03-08T02:05:16;46.27;;;21.70;;
51664;SDS011;37751;52.408;12.536;2024-03-08T02:07:53;46.67;;;22.03;;
51664;SDS011;37751;52.408;12.536;2024-03-08T02:10:24;40.43;;;21.50;;
51664;SDS011;37751;52.408;12.536;2024-03-08T02:13:05;39.47;;;21.43;;
51664;SDS011;37751;52.408;12.536;2024-03-08T02:18:40;44.10;;;22.13;;
51664;SDS011;37751;52.408;12.536;2024-03-08T02:21:16;45.37;;;22.90;;
51664;SDS011;37751;52.408;12.536;2024-03-08T02:24:01;43.50;;;23.33;;
51664;SDS011;37751;52.408;12.536;2024-03-08T02:26:47;45.17;;;23.57;;
51664;SDS011;37751;52.408;12.536;2024-03-08T02:29:19;46.57;;;23.60;;
51664;SDS011;37751;52.408;12.536;2024-03-08T02:32:11;44.67;;;23.10;;
51664;SDS011;37751;52.408;12.536;2024-03-08T02:34:56;43.40;;;22.47;;
51664;SDS011;37751;52.408;12.536;2024-03-08T02:37:44;48.97;;;22.93;;
51664;SDS011;37751;52.408;12.536;2024-03-08T02:40:25;45.70;;;22.63;;
51664;SDS011;37751;52.408;12.536;2024-03-08T02:42:59;45.00;;;22.70;;
51664;SDS011;37751;52.408;12.536;2024-03-08T02:45:36;45.97;;;22.67;;
51664;SDS011;37751;52.408;12.536;2024-03-08T02:48:09;45.17;;;22.73;;
51664;SDS011;37751;52.408;12.536;2024-03-08T02:50:43;43.77;;;22.53;;
51664;SDS011;37751;52.408;12.536;2024-03-08T02:53:20;46.50;;;24.70;;
51664;SDS011;37751;52.408;12.536;2024-03-08T02:55:51;46.40;;;23.93;;
51664;SDS011;37751;52.408;12.536;2024-03-08T02:58:22;44.83;;;23.57;;
51664;SDS011;37751;52.408;12.536;2024-03-08T03:00:57;46.87;;;24.07;;
51664;SDS011;37751;52.408;12.536;2024-03-08T03:03:37;49.83;;;23.83;;
51664;SDS011;37751;52.408;12.536;2024-03-08T03:06:09;52.30;;;24.83;;
51664;SDS011;37751;52.408;12.536;2024-03-08T03:08:49;50.03;;;23.30;;
51664;SDS011;37751;52.408;12.536;2024-03-08T03:11:32;53.83;;;24.77;;
51664;SDS011;37751;52.408;12.536;2024-03-08T03:14:06;47.70;;;24.00;;
51664;SDS011;37751;52.408;12.536;2024-03-08T03:16:37;46.07;;;23.33;;
51664;SDS011;37751;52.408;12.536;2024-03-08T03:19:10;50.53;;;24.30;;
51664;SDS011;37751;52.408;12.536;2024-03-08T03:21:42;48.43;;;24.57;;
51664;SDS011;37751;52.408;12.536;2024-03-08T03:24:16;50.00;;;24.73;;
51664;SDS011;37751;52.408;12.536;2024-03-08T03:26:48;49.30;;;24.80;;
51664;SDS011;37751;52.408;12.536;2024-03-08T03:29:19;52.90;;;24.03;;
51664;SDS011;37751;52.408;12.536;2024-03-08T03:31:54;52.57;;;25.60;;
51664;SDS011;37751;52.408;12.536;2024-03-08T03:34:45;45.03;;;25.33;;
51664;SDS011;37751;52.408;12.536;2024-03-08T03:37:16;50.67;;;25.23;;
51664;SDS011;37751;52.408;12.536;2024-03-08T03:39:49;53.67;;;25.67;;
51664;SDS011;37751;52.408;12.536;2024-03-08T03:42:23;54.10;;;25.13;;
51664;SDS011;37751;52.408;12.536;2024-03-08T03:44:57;51.03;;;25.10;;
51664;SDS011;37751;52.408;12.536;2024-03-08T03:47:34;53.60;;;26.07;;
51664;SDS011;37751;52.408;12.536;2024-03-08T03:50:28;57.00;;;26.60;;
51664;SDS011;37751;52.408;12.536;2024-03-08T03:53:02;56.07;;;26.77;;
51664;SDS011;37751;52.408;12.536;2024-03-08T03:55:43;51.77;;;27.17;;
51664;SDS011;37751;52.408;12.536;2024-03-08T03:58:36;50.33;;;25.50;;
51664;SDS011;37751;52.408;12.536;2024-03-08T04:01:48;48.60;;;26.33;;
51664;SDS011;37751;52.408;12.536;2024-03-08T04:04:59;56.37;;;25.87;;
51664;SDS011;37751;52.408;12.536;2024-03-08T04:07:42;57.93;;;27.27;;
51664;SDS011;37751;52.408;12.536;2024-03-08T04:10:16;54.53;;;27.03;;
51664;SDS011;37751;52.408;12.536;2024-03-08T04:13:14;56.47;;;26.23;;
51664;SDS011;37751;52.408;12.536;2024-03-08T04:15:48;61.63;;;29.07;;
51664;SDS011;37751;52.408;12.536;2024-03-08T04:18:46;59.87;;;26.67;;
51664;SDS011;37751;52.408;12.536;2024-03-08T04:21:35;54.63;;;25.53;;
51664;SDS011;37751;52.408;12.536;2024-03-08T04:24:15;53.10;;;26.70;;
51664;SDS011;37751;52.408;12.536;2024-03-08T04:26:52;59.37;;;26.57;;
51664;SDS011;37751;52.408;12.536;2024-03-08T04:29:30;53.83;;;26.30;;
51664;SDS011;37751;52.408;12.536;2024-03-08T04:32:25;53.77;;;27.60;;
51664;SDS011;37751;52.408;12.536;2024-03-08T04:35:05;55.17;;;27.20;;
51664;SDS011;37751;52.408;12.536;2024-03-08T04:38:02;56.97;;;28.03;;
51664;SDS011;37751;52.408;12.536;2024-03-08T04:40:48;51.47;;;26.20;;
51664;SDS011;37751;52.408;12.536;2024-03-08T04:43:20;55.37;;;26.73;;
51664;SDS011;37751;52.408;12.536;2024-03-08T04:45:59;59.63;;;27.90;;
51664;SDS011;37751;52.408;12.536;2024-03-08T04:48:33;59.33;;;27.83;;
51664;SDS011;37751;52.408;12.536;2024-03-08T04:51:04;56.70;;;26.97;;
51664;SDS011;37751;52.408;12.536;2024-03-08T04:53:38;62.13;;;27.30;;
51664;SDS011;37751;52.408;12.536;2024-03-08T04:56:09;56.87;;;27.93;;
51664;SDS011;37751;52.408;12.536;2024-03-08T04:58:51;58.07;;;25.40;;
51664;SDS011;37751;52.408;12.536;2024-03-08T05:01:25;54.37;;;26.47;;
51664;SDS011;37751;52.408;12.536;2024-03-08T05:04:17;58.93;;;27.60;;
51664;SDS011;37751;52.408;12.536;2024-03-08T05:06:51;59.17;;;28.33;;
51664;SDS011;37751;52.408;12.536;2024-03-08T05:09:22;55.57;;;27.57;;
51664;SDS011;37751;52.408;12.536;2024-03-08T05:11:53;62.90;;;27.33;;
51664;SDS011;37751;52.408;12.536;2024-03-08T05:14:26;56.20;;;26.97;;
51664;SDS011;37751;52.408;12.536;2024-03-08T05:17:10;62.27;;;27.97;;
51664;SDS011;37751;52.408;12.536;2024-03-08T05:19:41;52.33;;;27.87;;
51664;SDS011;37751;52.408;12.536;2024-03-08T05:22:15;56.17;;;28.30;;
51664;SDS011;37751;52.408;12.536;2024-03-08T05:25:25;58.33;;;28.77;;
51664;SDS011;37751;52.408;12.536;2024-03-08T05:28:19;63.10;;;29.67;;
51664;SDS011;37751;52.408;12.536;2024-03-08T05:31:03;55.60;;;27.20;;
51664;SDS011;37751;52.408;12.536;2024-03-08T05:33:40;61.00;;;28.40;;
51664;SDS011;37751;52.408;12.536;2024-03-08T05:36:34;71.60;;;29.47;;
51664;SDS011;37751;52.408;12.536;2024-03-08T05:39:14;63.43;;;29.30;;
51664;SDS011;37751;52.408;12.536;2024-03-08T05:41:49;66.67;;;29.47;;
51664;SDS011;37751;52.408;12.536;2024-03-08T05:44:56;58.20;;;28.20;;
51664;SDS011;37751;52.408;12.536;2024-03-08T05:47:48;56.67;;;28.53;;
51664;SDS011;37751;52.408;12.536;2024-03-08T05:50:25;61.03;;;29.10;;
51664;SDS011;37751;52.408;12.536;2024-03-08T05:52:58;58.50;;;28.37;;
51664;SDS011;37751;52.408;12.536;2024-03-08T05:55:31;62.80;;;30.77;;
51664;SDS011;37751;52.408;12.536;2024-03-08T05:58:03;66.07;;;29.27;;
51664;SDS011;37751;52.408;12.536;2024-03-08T06:01:15;57.93;;;27.97;;
51664;SDS011;37751;52.408;12.536;2024-03-08T06:03:59;64.57;;;29.07;;
51664;SDS011;37751;52.408;12.536;2024-03-08T06:06:54;58.33;;;26.77;;
51664;SDS011;37751;52.408;12.536;2024-03-08T06:09:25;59.67;;;29.40;;
51664;SDS011;37751;52.408;12.536;2024-03-08T06:12:37;56.10;;;27.63;;
51664;SDS011;37751;52.408;12.536;2024-03-08T06:15:09;59.27;;;28.97;;
51664;SDS011;37751;52.408;12.536;2024-03-08T06:17:45;56.07;;;28.10;;
51664;SDS011;37751;52.408;12.536;2024-03-08T06:20:21;61.00;;;29.03;;
51664;SDS011;37751;52.408;12.536;2024-03-08T06:22:56;59.90;;;28.10;;
51664;SDS011;37751;52.408;12.536;2024-03-08T06:25:28;57.27;;;28.00;;
51664;SDS011;37751;52.408;12.536;2024-03-08T06:28:05;59.40;;;27.73;;
51664;SDS011;37751;52.408;12.536;2024-03-08T06:30:36;59.40;;;27.43;;
51664;SDS011;37751;52.408;12.536;2024-03-08T06:33:10;53.33;;;27.93;;
51664;SDS011;37751;52.408;12.536;2024-03-08T06:36:04;56.63;;;26.07;;
51664;SDS011;37751;52.408;12.536;2024-03-08T06:38:53;58.20;;;27.63;;
51664;SDS011;37751;52.408;12.536;2024-03-08T06:41:24;57.10;;;25.90;;
51664;SDS011;37751;52.408;12.536;2024-03-08T06:43:56;57.23;;;26.60;;
51664;SDS011;37751;52.408;12.536;2024-03-08T06:46:32;52.67;;;25.17;;
51664;SDS011;37751;52.408;12.536;2024-03-08T06:49:03;62.63;;;27.47;;
51664;SDS011;37751;52.408;12.536;2024-03-08T06:52:05;53.40;;;27.23;;
51664;SDS011;37751;52.408;12.536;2024-03-08T06:54:53;59.60;;;26.13;;
51664;SDS011;37751;52.408;12.536;2024-03-08T06:57:31;53.63;;;26.43;;
51664;SDS011;37751;52.408;12.536;2024-03-08T07:00:03;50.67;;;26.13;;
51664;SDS011;37751;52.408;12.536;2024-03-08T07:02:54;48.83;;;24.80;;
51664;SDS011;37751;52.408;12.536;2024-03-08T07:05:28;53.17;;;26.40;;
51664;SDS011;37751;52.408;12.536;2024-03-08T07:08:25;54.73;;;25.20;;
51664;SDS011;37751;52.408;12.536;2024-03-08T07:11:00;48.40;;;24.33;;
51664;SDS011;37751;52.408;12.536;2024-03-08T07:13:31;55.67;;;26.63;;
51664;SDS011;37751;52.408;12.536;2024-03-08T07:16:02;54.40;;;27.00;;
51664;SDS011;37751;52.408;12.536;2024-03-08T07:18:35;50.10;;;25.13;;
51664;SDS011;37751;52.408;12.536;2024-03-08T07:21:17;44.47;;;24.43;;
51664;SDS011;37751;52.408;12.536;2024-03-08T07:23:49;43.23;;;24.30;;
51664;SDS011;37751;52.408;12.536;2024-03-08T07:26:41;49.23;;;24.73;;
51664;SDS011;37751;52.408;12.536;2024-03-08T07:29:16;55.43;;;25.90;;
51664;SDS011;37751;52.408;12.536;2024-03-08T07:31:47;50.77;;;25.70;;
51664;SDS011;37751;52.408;12.536;2024-03-08T07:34:26;45.30;;;25.13;;
51664;SDS011;37751;52.408;12.536;2024-03-08T07:37:01;49.53;;;25.33;;
51664;SDS011;37751;52.408;12.536;2024-03-08T07:39:49;56.87;;;24.57;;
51664;SDS011;37751;52.408;12.536;2024-03-08T07:42:28;52.87;;;27.60;;
51664;SDS011;37751;52.408;12.536;2024-03-08T07:45:10;49.83;;;24.80;;
51664;SDS011;37751;52.408;12.536;2024-03-08T07:48:15;51.47;;;24.80;;
51664;SDS011;37751;52.408;12.536;2024-03-08T07:51:09;48.77;;;23.93;;
51664;SDS011;37751;52.408;12.536;2024-03-08T07:54:00;48.37;;;24.63;;
51664;SDS011;37751;52.408;12.536;2024-03-08T07:56:55;44.67;;;23.07;;
51664;SDS011;37751;52.408;12.536;2024-03-08T07:59:32;48.60;;;24.17;;
51664;SDS011;37751;52.408;12.536;2024-03-08T08:02:13;45.30;;;23.97;;
51664;SDS011;37751;52.408;12.536;2024-03-08T08:05:15;49.00;;;25.13;;
51664;SDS011;37751;52.408;12.536;2024-03-08T08:08:17;47.57;;;24.30;;
51664;SDS011;37751;52.408;12.536;2024-03-08T08:10:48;44.30;;;23.43;;
51664;SDS011;37751;52.408;12.536;2024-03-08T08:13:40;44.53;;;22.20;;
51664;SDS011;37751;52.408;12.536;2024-03-08T08:16:48;52.30;;;24.17;;
51664;SDS011;37751;52.408;12.536;2024-03-08T08:20:00;42.93;;;21.57;;
51664;SDS011;37751;52.408;12.536;2024-03-08T08:22:41;41.90;;;22.40;;
51664;SDS011;37751;52.408;12.536;2024-03-08T08:25:24;44.03;;;21.90;;
51664;SDS011;37751;52.408;12.536;2024-03-08T08:27:55;50.83;;;24.30;;
51664;SDS011;37751;52.408;12.536;2024-03-08T08:30:26;43.43;;;22.30;;
51664;SDS011;37751;52.408;12.536;2024-03-08T08:33:03;39.33;;;22.57;;
51664;SDS011;37751;52.408;12.536;2024-03-08T08:35:36;44.57;;;23.97;;
51664;SDS011;37751;52.408;12.536;2024-03-08T08:38:07;42.17;;;21.37;;
51664;SDS011;37751;52.408;12.536;2024-03-08T08:40:41;38.17;;;21.37;;
51664;SDS011;37751;52.408;12.536;2024-03-08T08:43:47;39.40;;;21.63;;
51664;SDS011;37751;52.408;12.536;2024-03-08T08:46:54;46.67;;;20.93;;
51664;SDS011;37751;52.408;12.536;2024-03-08T08:49:41;39.47;;;21.57;;
51664;SDS011;37751;52.408;12.536;2024-03-08T08:52:13;42.00;;;21.47;;
51664;SDS011;37751;52.408;12.536;2024-03-08T08:55:20;41.47;;;21.53;;
51664;SDS011;37751;52.408;12.536;2024-03-08T08:57:59;38.77;;;19.80;;
51664;SDS011;37751;52.408;12.536;2024-03-08T09:00:30;39.50;;;20.67;;
51664;SDS011;37751;52.408;12.536;2024-03-08T09:03:02;41.70;;;22.07;;
51664;SDS011;37751;52.408;12.536;2024-03-08T09:05:56;45.03;;;20.90;;
51664;SDS011;37751;52.408;12.536;2024-03-08T09:08:37;36.67;;;20.57;;
51664;SDS011;37751;52.408;12.536;2024-03-08T09:11:17;41.73;;;21.00;;
51664;SDS011;37751;52.408;12.536;2024-03-08T09:13:53;37.67;;;19.63;;
51664;SDS011;37751;52.408;12.536;2024-03-08T09:16:24;35.33;;;19.90;;
51664;SDS011;37751;52.408;12.536;2024-03-08T09:19:35;38.00;;;20.03;;
51664;SDS011;37751;52.408;12.536;2024-03-08T09:22:09;35.53;;;20.10;;
51664;SDS011;37751;52.408;12.536;2024-03-08T09:24:40;32.97;;;18.37;;
51664;SDS011;37751;52.408;12.536;2024-03-08T09:27:14;32.60;;;18.57;;
51664;SDS011;37751;52.408;12.536;2024-03-08T09:29:51;37.47;;;18.73;;
51664;SDS011;37751;52.408;12.536;2024-03-08T09:32:42;30.20;;;18.90;;
51664;SDS011;37751;52.408;12.536;2024-03-08T09:35:16;31.87;;;18.37;;
51664;SDS011;37751;52.408;12.536;2024-03-08T09:37:53;30.57;;;18.60;;
51664;SDS011;37751;52.408;12.536;2024-03-08T09:40:27;35.83;;;18.63;;
51664;SDS011;37751;52.408;12.536;2024-03-08T09:42:58;33.03;;;19.50;;
51664;SDS011;37751;52.408;12.536;2024-03-08T09:46:01;34.03;;;18.23;;
51664;SDS011;37751;52.408;12.536;2024-03-08T09:48:33;32.23;;;18.27;;
51664;SDS011;37751;52.408;12.536;2024-03-08T09:51:07;37.03;;;18.93;;
51664;SDS011;37751;52.408;12.536;2024-03-08T09:54:13;28.93;;;17.37;;
51664;SDS011;37751;52.408;12.536;2024-03-08T09:56:50;32.77;;;18.20;;
51664;SDS011;37751;52.408;12.536;2024-03-08T09:59:32;32.23;;;17.97;;
51664;SDS011;37751;52.408;12.536;2024-03-08T10:03:05;27.27;;;16.10;;
51664;SDS011;37751;52.408;12.536;2024-03-08T10:06:22;29.40;;;16.43;;
51664;SDS011;37751;52.408;12.536;2024-03-08T10:10:20;28.53;;;17.27;;
51664;SDS011;37751;52.408;12.536;2024-03-08T10:14:12;27.57;;;16.20;;
51664;SDS011;37751;52.408;12.536;2024-03-08T10:17:01;28.47;;;16.73;;
51664;SDS011;37751;52.408;12.536;2024-03-08T10:21:04;30.97;;;17.10;;
51664;SDS011;37751;52.408;12.536;2024-03-08T10:24:46;29.10;;;16.97;;
51664;SDS011;37751;52.408;12.536;2024-03-08T10:28:17;26.75;;;16.75;;
51664;SDS011;37751;52.408;12.536;2024-03-08T10:31:04;27.37;;;15.57;;
51664;SDS011;37751;52.408;12.536;2024-03-08T10:33:37;32.08;;;16.88;;
51664;SDS011;37751;52.408;12.536;2024-03-08T10:36:20;29.75;;;15.52;;
51664;SDS011;37751;52.408;12.536;2024-03-08T10:39:04;27.13;;;16.38;;
51664;SDS011;37751;52.408;12.536;2024-03-08T10:41:46;31.10;;;16.98;;
51664;SDS011;37751;52.408;12.536;2024-03-08T10:44:36;30.33;;;17.52;;
51664;SDS011;37751;52.408;12.536;2024-03-08T10:47:29;28.80;;;17.02;;
51664;SDS011;37751;52.408;12.536;2024-03-08T10:50:22;31.40;;;15.93;;
51664;SDS011;37751;52.408;12.536;2024-03-08T10:52:53;29.90;;;17.20;;
51664;SDS011;37751;52.408;12.536;2024-03-08T10:55:35;31.98;;;17.10;;
51664;SDS011;37751;52.408;12.536;2024-03-08T10:58:09;30.85;;;16.45;;
51664;SDS011;37751;52.408;12.536;2024-03-08T11:00:43;29.60;;;15.18;;
51664;SDS011;37751;52.408;12.536;2024-03-08T11:06:41;29.40;;;17.02;;
51664;SDS011;37751;52.408;12.536;2024-03-08T11:09:29;32.47;;;17.88;;
51664;SDS011;37751;52.408;12.536;2024-03-08T11:15:10;28.10;;;17.15;;
51664;SDS011;37751;52.408;12.536;2024-03-08T11:18:09;31.52;;;18.25;;
51664;SDS011;37751;52.408;12.536;2024-03-08T11:20:42;31.67;;;17.33;;
51664;SDS011;37751;52.408;12.536;2024-03-08T11:23:34;30.75;;;17.45;;
51664;SDS011;37751;52.408;12.536;2024-03-08T11:26:14;30.75;;;17.13;;
51664;SDS011;37751;52.408;12.536;2024-03-08T11:28:48;30.55;;;17.48;;
51664;SDS011;37751;52.408;12.536;2024-03-08T11:31:36;25.75;;;15.80;;
51664;SDS011;37751;52.408;12.536;2024-03-08T11:34:16;28.05;;;15.95;;
51664;SDS011;37751;52.408;12.536;2024-03-08T11:36:49;34.00;;;17.20;;
51664;SDS011;37751;52.408;12.536;2024-03-08T11:39:24;34.63;;;18.23;;
51664;SDS011;37751;52.408;12.536;2024-03-08T11:42:02;26.75;;;16.73;;
51664;SDS011;37751;52.408;12.536;2024-03-08T11:44:33;26.60;;;15.35;;
51664;SDS011;37751;52.408;12.536;2024-03-08T11:47:25;25.58;;;15.50;;
51664;SDS011;37751;52.408;12.536;2024-03-08T11:50:13;31.27;;;16.08;;
51664;SDS011;37751;52.408;12.536;2024-03-08T11:52:48;35.92;;;16.58;;
51664;SDS011;37751;52.408;12.536;2024-03-08T11:55:23;27.15;;;16.35;;
51664;SDS011;37751;52.408;12.536;2024-03-08T11:58:01;27.25;;;16.42;;
51664;SDS011;37751;52.408;12.536;2024-03-08T12:00:38;32.85;;;17.85;;
51664;SDS011;37751;52.408;12.536;2024-03-08T12:03:09;31.63;;;17.70;;
51664;SDS011;37751;52.408;12.536;2024-03-08T12:05:42;30.08;;;16.15;;
51664;SDS011;37751;52.408;12.536;2024-03-08T12:08:14;27.00;;;15.10;;
51664;SDS011;37751;52.408;12.536;2024-03-08T12:10:46;32.97;;;15.95;;
51664;SDS011;37751;52.408;12.536;2024-03-08T12:13:17;28.20;;;16.27;;
51664;SDS011;37751;52.408;12.536;2024-03-08T12:15:48;31.13;;;16.63;;
51664;SDS011;37751;52.408;12.536;2024-03-08T12:18:22;32.10;;;17.00;;
51664;SDS011;37751;52.408;12.536;2024-03-08T12:21:08;28.52;;;16.02;;
51664;SDS011;37751;52.408;12.536;2024-03-08T12:23:41;27.52;;;16.40;;
51664;SDS011;37751;52.408;12.536;2024-03-08T12:26:12;31.48;;;15.40;;
51664;SDS011;37751;52.408;12.536;2024-03-08T12:28:45;28.33;;;14.57;;
51664;SDS011;37751;52.408;12.536;2024-03-08T12:31:19;28.90;;;15.45;;
51664;SDS011;37751;52.408;12.536;2024-03-08T12:34:00;31.65;;;15.65;;
51664;SDS011;37751;52.408;12.536;2024-03-08T12:36:37;27.63;;;14.98;;
51664;SDS011;37751;52.408;12.536;2024-03-08T12:39:08;24.33;;;14.70;;
51664;SDS011;37751;52.408;12.536;2024-03-08T12:41:46;28.27;;;14.40;;
51664;SDS011;37751;52.408;12.536;2024-03-08T12:44:27;23.83;;;14.68;;
51664;SDS011;37751;52.408;12.536;2024-03-08T12:46:58;25.70;;;14.50;;
51664;SDS011;37751;52.408;12.536;2024-03-08T12:49:29;23.92;;;13.95;;
51664;SDS011;37751;52.408;12.536;2024-03-08T12:52:03;27.85;;;14.30;;
51664;SDS011;37751;52.408;12.536;2024-03-08T12:54:39;25.30;;;13.50;;
51664;SDS011;37751;52.408;12.536;2024-03-08T12:57:10;24.55;;;13.35;;
51664;SDS011;37751;52.408;12.536;2024-03-08T12:59:59;26.33;;;13.60;;
51664;SDS011;37751;52.408;12.536;2024-03-08T13:02:50;25.65;;;13.02;;
51664;SDS011;37751;52.408;12.536;2024-03-08T13:05:26;21.23;;;11.32;;
51664;SDS011;37751;52.408;12.536;2024-03-08T13:08:10;24.77;;;13.68;;
51664;SDS011;37751;52.408;12.536;2024-03-08T13:10:46;25.83;;;12.95;;
51664;SDS011;37751;52.408;12.536;2024-03-08T13:13:18;21.33;;;12.65;;
51664;SDS011;37751;52.408;12.536;2024-03-08T13:15:49;26.65;;;13.13;;
51664;SDS011;37751;52.408;12.536;2024-03-08T13:18:21;26.30;;;13.80;;
51664;SDS011;37751;52.408;12.536;2024-03-08T13:20:54;26.77;;;11.85;;
51664;SDS011;37751;52.408;12.536;2024-03-08T13:23:28;23.58;;;12.45;;
51664;SDS011;37751;52.408;12.536;2024-03-08T13:26:06;19.55;;;12.27;;
51664;SDS011;37751;52.408;12.536;2024-03-08T13:28:39;22.52;;;12.77;;
51664;SDS011;37751;52.408;12.536;2024-03-08T13:31:10;30.27;;;12.95;;
51664;SDS011;37751;52.408;12.536;2024-03-08T13:33:57;22.02;;;12.45;;
51664;SDS011;37751;52.408;12.536;2024-03-08T13:36:31;24.48;;;13.48;;
51664;SDS011;37751;52.408;12.536;2024-03-08T13:39:18;25.02;;;13.40;;
51664;SDS011;37751;52.408;12.536;2024-03-08T13:41:55;25.30;;;13.82;;
51664;SDS011;37751;52.408;12.536;2024-03-08T13:44:29;26.77;;;13.40;;
51664;SDS011;37751;52.408;12.536;2024-03-08T13:47:00;24.38;;;12.77;;
51664;SDS011;37751;52.408;12.536;2024-03-08T13:49:32;22.00;;;13.15;;
51664;SDS011;37751;52.408;12.536;2024-03-08T13:52:04;21.20;;;13.30;;
51664;SDS011;37751;52.408;12.536;2024-03-08T13:54:38;24.17;;;13.38;;
51664;SDS011;37751;52.408;12.536;2024-03-08T13:57:18;23.55;;;12.93;;
51664;SDS011;37751;52.408;12.536;2024-03-08T13:59:49;24.58;;;14.45;;
51664;SDS011;37751;52.408;12.536;2024-03-08T14:05:50;17.88;;;11.25;;
51664;SDS011;37751;52.408;12.536;2024-03-08T14:09:03;21.46;;;12.40;;
51664;SDS011;37751;52.408;12.536;2024-03-08T14:12:09;22.17;;;13.30;;
51664;SDS011;37751;52.408;12.536;2024-03-08T14:15:15;25.40;;;12.10;;
51664;SDS011;37751;52.408;12.536;2024-03-08T14:18:04;20.75;;;12.20;;
51664;SDS011;37751;52.408;12.536;2024-03-08T14:24:46;18.63;;;11.45;;
51664;SDS011;37751;52.408;12.536;2024-03-08T14:27:56;18.92;;;11.27;;
51664;SDS011;37751;52.408;12.536;2024-03-08T14:34:14;21.48;;;10.77;;
51664;SDS011;37751;52.408;12.536;2024-03-08T14:37:34;20.34;;;11.12;;
51664;SDS011;37751;52.408;12.536;2024-03-08T14:44:10;18.85;;;11.23;;
51664;SDS011;37751;52.408;12.536;2024-03-08T14:47:07;25.50;;;12.68;;
51664;SDS011;37751;52.408;12.536;2024-03-08T14:50:05;21.05;;;11.90;;
51664;SDS011;37751;52.408;12.536;2024-03-08T14:52:51;21.00;;;12.35;;
51664;SDS011;37751;52.408;12.536;2024-03-08T14:55:51;19.65;;;11.25;;
51664;SDS011;37751;52.408;12.536;2024-03-08T14:58:46;19.13;;;11.10;;
51664;SDS011;37751;52.408;12.536;2024-03-08T15:01:42;17.33;;;11.00;;
51664;SDS011;37751;52.408;12.536;2024-03-08T15:04:56;19.67;;;10.85;;
51664;SDS011;37751;52.408;12.536;2024-03-08T15:07:34;19.83;;;10.18;;
51664;SDS011;37751;52.408;12.536;2024-03-08T15:10:39;17.55;;;10.88;;
51664;SDS011;37751;52.408;12.536;2024-03-08T15:13:18;18.50;;;10.80;;
51664;SDS011;37751;52.408;12.536;2024-03-08T15:16:25;16.90;;;9.70;;
51664;SDS011;37751;52.408;12.536;2024-03-08T15:19:09;14.90;;;9.70;;
51664;SDS011;37751;52.408;12.536;2024-03-08T15:24:42;17.35;;;10.45;;
51664;SDS011;37751;52.408;12.536;2024-03-08T15:27:30;20.40;;;11.07;;
51664;SDS011;37751;52.408;12.536;2024-03-08T15:30:38;17.95;;;10.43;;
51664;SDS011;37751;52.408;12.536;2024-03-08T15:36:44;15.60;;;10.07;;
51664;SDS011;37751;52.408;12.536;2024-03-08T15:39:51;18.02;;;10.15;;
51664;SDS011;37751;52.408;12.536;2024-03-08T15:43:04;19.48;;;12.32;;
51664;SDS011;37751;52.408;12.536;2024-03-08T15:46:04;19.67;;;11.27;;
51664;SDS011;37751;52.408;12.536;2024-03-08T15:49:07;19.05;;;11.88;;
51664;SDS011;37751;52.408;12.536;2024-03-08T15:52:27;18.23;;;10.18;;
51664;SDS011;37751;52.408;12.536;2024-03-08T15:55:14;16.38;;;10.25;;
51664;SDS011;37751;52.408;12.536;2024-03-08T15:58:23;17.13;;;10.18;;
51664;SDS011;37751;52.408;12.536;2024-03-08T16:01:25;15.82;;;9.77;;
51664;SDS011;37751;52.408;12.536;2024-03-08T16:04:33;17.63;;;10.93;;
51664;SDS011;37751;52.408;12.536;2024-03-08T16:07:55;20.88;;;11.10;;